sensor_id;sensor_type;location;lat;lon;timestamp;P1;durP1;ratioP1;P2;durP2;ratioP2
79578;SDS011;69051;52.406;5.280;2023-06-10T00:00:44;9.68;;;3.42;;
79578;SDS011;69051;52.406;5.280;2023-06-10T00:03:11;9.65;;;3.50;;
79578;SDS011;69051;52.406;5.280;2023-06-10T00:05:39;11.45;;;4.10;;
79578;SDS011;69051;52.406;5.280;2023-06-10T00:08:05;11.65;;;4.05;;
79578;SDS011;69051;52.406;5.280;2023-06-10T00:10:35;9.85;;;3.53;;
79578;SDS011;69051;52.406;5.280;2023-06-10T00:13:03;9.60;;;3.70;;
79578;SDS011;69051;52.406;5.280;2023-06-10T00:15:31;9.60;;;3.40;;
79578;SDS011;69051;52.406;5.280;2023-06-10T00:17:57;10.35;;;4.13;;
79578;SDS011;69051;52.406;5.280;2023-06-10T00:20:24;11.20;;;4.85;;
79578;SDS011;69051;52.406;5.280;2023-06-10T00:22:51;14.23;;;3.95;;
79578;SDS011;69051;52.406;5.280;2023-06-10T00:25:18;7.50;;;3.53;;
79578;SDS011;69051;52.406;5.280;2023-06-10T00:27:45;14.90;;;4.32;;
79578;SDS011;69051;52.406;5.280;2023-06-10T00:30:11;11.38;;;4.20;;
79578;SDS011;69051;52.406;5.280;2023-06-10T00:32:38;9.45;;;3.30;;
79578;SDS011;69051;52.406;5.280;2023-06-10T00:35:05;8.75;;;3.75;;
79578;SDS011;69051;52.406;5.280;2023-06-10T00:37:33;18.00;;;4.40;;
79578;SDS011;69051;52.406;5.280;2023-06-10T00:40:05;12.27;;;4.25;;
79578;SDS011;69051;52.406;5.280;2023-06-10T00:42:32;14.20;;;4.30;;
79578;SDS011;69051;52.406;5.280;2023-06-10T00:44:58;12.30;;;4.22;;
79578;SDS011;69051;52.406;5.280;2023-06-10T00:47:25;10.15;;;3.78;;
79578;SDS011;69051;52.406;5.280;2023-06-10T00:49:52;12.18;;;3.92;;
79578;SDS011;69051;52.406;5.280;2023-06-10T00:52:19;10.55;;;4.00;;
79578;SDS011;69051;52.406;5.280;2023-06-10T00:54:49;10.40;;;4.05;;
79578;SDS011;69051;52.406;5.280;2023-06-10T00:57:16;9.60;;;3.72;;
79578;SDS011;69051;52.406;5.280;2023-06-10T00:59:43;11.02;;;4.40;;
79578;SDS011;69051;52.406;5.280;2023-06-10T01:02:14;8.88;;;3.83;;
79578;SDS011;69051;52.406;5.280;2023-06-10T01:04:40;12.63;;;3.72;;
79578;SDS011;69051;52.406;5.280;2023-06-10T01:07:10;9.65;;;3.85;;
79578;SDS011;69051;52.406;5.280;2023-06-10T01:15:23;10.65;;;4.60;;
79578;SDS011;69051;52.406;5.280;2023-06-10T01:20:30;13.05;;;4.43;;
79578;SDS011;69051;52.406;5.280;2023-06-10T01:22:59;11.95;;;3.83;;
79578;SDS011;69051;52.406;5.280;2023-06-10T01:25:26;13.23;;;4.13;;
79578;SDS011;69051;52.406;5.280;2023-06-10T01:33:42;9.80;;;4.13;;
79578;SDS011;69051;52.406;5.280;2023-06-10T01:36:12;11.25;;;3.92;;
79578;SDS011;69051;52.406;5.280;2023-06-10T01:38:40;11.93;;;4.60;;
79578;SDS011;69051;52.406;5.280;2023-06-10T01:43:38;12.23;;;3.72;;
79578;SDS011;69051;52.406;5.280;2023-06-10T01:46:05;11.60;;;4.10;;
79578;SDS011;69051;52.406;5.280;2023-06-10T01:48:32;12.95;;;4.72;;
79578;SDS011;69051;52.406;5.280;2023-06-10T01:50:59;13.60;;;4.55;;
79578;SDS011;69051;52.406;5.280;2023-06-10T01:53:26;14.38;;;5.22;;
79578;SDS011;69051;52.406;5.280;2023-06-10T01:55:52;10.10;;;4.25;;
79578;SDS011;69051;52.406;5.280;2023-06-10T01:58:19;11.20;;;3.88;;
79578;SDS011;69051;52.406;5.280;2023-06-10T02:00:45;10.45;;;4.45;;
79578;SDS011;69051;52.406;5.280;2023-06-10T02:03:12;14.20;;;4.85;;
79578;SDS011;69051;52.406;5.280;2023-06-10T02:05:38;13.48;;;4.75;;
79578;SDS011;69051;52.406;5.280;2023-06-10T02:08:05;9.65;;;5.05;;
79578;SDS011;69051;52.406;5.280;2023-06-10T02:10:32;10.25;;;4.47;;
79578;SDS011;69051;52.406;5.280;2023-06-10T02:12:58;14.18;;;4.78;;
79578;SDS011;69051;52.406;5.280;2023-06-10T02:15:25;10.07;;;4.50;;
79578;SDS011;69051;52.406;5.280;2023-06-10T02:17:52;11.75;;;4.40;;
79578;SDS011;69051;52.406;5.280;2023-06-10T02:20:18;11.55;;;4.18;;
79578;SDS011;69051;52.406;5.280;2023-06-10T02:22:45;10.63;;;4.72;;
79578;SDS011;69051;52.406;5.280;2023-06-10T02:25:11;11.40;;;4.38;;
79578;SDS011;69051;52.406;5.280;2023-06-10T02:27:38;10.88;;;4.55;;
79578;SDS011;69051;52.406;5.280;2023-06-10T02:30:05;9.52;;;4.38;;
79578;SDS011;69051;52.406;5.280;2023-06-10T02:32:31;15.07;;;4.93;;
79578;SDS011;69051;52.406;5.280;2023-06-10T02:34:58;10.65;;;4.60;;
79578;SDS011;69051;52.406;5.280;2023-06-10T02:37:26;13.45;;;5.10;;
79578;SDS011;69051;52.406;5.280;2023-06-10T02:39:52;13.98;;;5.38;;
79578;SDS011;69051;52.406;5.280;2023-06-10T02:42:19;13.13;;;4.90;;
79578;SDS011;69051;52.406;5.280;2023-06-10T02:44:45;13.95;;;5.25;;
79578;SDS011;69051;52.406;5.280;2023-06-10T02:47:12;15.50;;;4.78;;
79578;SDS011;69051;52.406;5.280;2023-06-10T02:49:38;14.32;;;4.68;;
79578;SDS011;69051;52.406;5.280;2023-06-10T02:52:05;11.75;;;4.43;;
79578;SDS011;69051;52.406;5.280;2023-06-10T02:54:33;15.90;;;4.65;;
79578;SDS011;69051;52.406;5.280;2023-06-10T02:56:59;10.93;;;4.72;;
79578;SDS011;69051;52.406;5.280;2023-06-10T02:59:26;12.38;;;4.90;;
79578;SDS011;69051;52.406;5.280;2023-06-10T03:01:54;12.75;;;5.45;;
79578;SDS011;69051;52.406;5.280;2023-06-10T03:04:21;11.63;;;4.75;;
79578;SDS011;69051;52.406;5.280;2023-06-10T03:06:49;13.73;;;5.05;;
79578;SDS011;69051;52.406;5.280;2023-06-10T03:09:16;12.40;;;5.20;;
79578;SDS011;69051;52.406;5.280;2023-06-10T03:11:42;15.43;;;5.25;;
79578;SDS011;69051;52.406;5.280;2023-06-10T03:14:09;10.85;;;4.72;;
79578;SDS011;69051;52.406;5.280;2023-06-10T03:16:35;11.05;;;4.50;;
79578;SDS011;69051;52.406;5.280;2023-06-10T03:19:06;11.60;;;5.10;;
79578;SDS011;69051;52.406;5.280;2023-06-10T03:21:36;14.02;;;4.60;;
79578;SDS011;69051;52.406;5.280;2023-06-10T03:24:04;15.00;;;5.07;;
79578;SDS011;69051;52.406;5.280;2023-06-10T03:26:31;10.05;;;4.65;;
79578;SDS011;69051;52.406;5.280;2023-06-10T03:28:57;15.20;;;5.07;;
79578;SDS011;69051;52.406;5.280;2023-06-10T03:31:24;14.93;;;5.32;;
79578;SDS011;69051;52.406;5.280;2023-06-10T03:33:51;11.90;;;4.75;;
79578;SDS011;69051;52.406;5.280;2023-06-10T03:36:17;11.38;;;4.63;;
79578;SDS011;69051;52.406;5.280;2023-06-10T03:38:44;12.77;;;4.88;;
79578;SDS011;69051;52.406;5.280;2023-06-10T03:41:10;10.68;;;4.53;;
79578;SDS011;69051;52.406;5.280;2023-06-10T03:43:37;11.68;;;4.65;;
79578;SDS011;69051;52.406;5.280;2023-06-10T03:46:05;11.70;;;5.20;;
79578;SDS011;69051;52.406;5.280;2023-06-10T03:48:31;14.93;;;5.68;;
79578;SDS011;69051;52.406;5.280;2023-06-10T03:50:58;14.35;;;5.60;;
79578;SDS011;69051;52.406;5.280;2023-06-10T03:53:24;12.25;;;5.55;;
79578;SDS011;69051;52.406;5.280;2023-06-10T03:55:51;11.85;;;5.43;;
79578;SDS011;69051;52.406;5.280;2023-06-10T03:58:17;13.05;;;5.80;;
79578;SDS011;69051;52.406;5.280;2023-06-10T04:00:44;16.85;;;4.97;;
79578;SDS011;69051;52.406;5.280;2023-06-10T04:03:11;10.60;;;5.28;;
79578;SDS011;69051;52.406;5.280;2023-06-10T04:05:41;13.50;;;5.65;;
79578;SDS011;69051;52.406;5.280;2023-06-10T04:08:08;19.63;;;5.30;;
79578;SDS011;69051;52.406;5.280;2023-06-10T04:10:34;17.15;;;5.38;;
79578;SDS011;69051;52.406;5.280;2023-06-10T04:13:01;16.77;;;5.70;;
79578;SDS011;69051;52.406;5.280;2023-06-10T04:15:28;13.85;;;5.07;;
79578;SDS011;69051;52.406;5.280;2023-06-10T04:17:54;11.30;;;5.35;;
79578;SDS011;69051;52.406;5.280;2023-06-10T04:20:21;12.32;;;5.55;;
79578;SDS011;69051;52.406;5.280;2023-06-10T04:22:48;15.27;;;5.65;;
79578;SDS011;69051;52.406;5.280;2023-06-10T04:25:14;12.00;;;4.93;;
79578;SDS011;69051;52.406;5.280;2023-06-10T04:27:42;12.07;;;5.20;;
79578;SDS011;69051;52.406;5.280;2023-06-10T04:30:09;13.27;;;6.25;;
79578;SDS011;69051;52.406;5.280;2023-06-10T04:32:36;12.02;;;5.57;;
79578;SDS011;69051;52.406;5.280;2023-06-10T04:35:03;17.60;;;5.65;;
79578;SDS011;69051;52.406;5.280;2023-06-10T04:37:31;14.68;;;5.30;;
79578;SDS011;69051;52.406;5.280;2023-06-10T04:39:58;14.38;;;6.00;;
79578;SDS011;69051;52.406;5.280;2023-06-10T04:42:25;12.77;;;5.25;;
79578;SDS011;69051;52.406;5.280;2023-06-10T04:44:51;11.45;;;5.35;;
79578;SDS011;69051;52.406;5.280;2023-06-10T04:47:18;15.05;;;5.35;;
79578;SDS011;69051;52.406;5.280;2023-06-10T04:49:44;13.32;;;5.72;;
79578;SDS011;69051;52.406;5.280;2023-06-10T04:52:11;13.32;;;5.32;;
79578;SDS011;69051;52.406;5.280;2023-06-10T04:54:37;15.05;;;7.22;;
79578;SDS011;69051;52.406;5.280;2023-06-10T04:57:04;13.70;;;5.57;;
79578;SDS011;69051;52.406;5.280;2023-06-10T04:59:33;10.63;;;5.82;;
79578;SDS011;69051;52.406;5.280;2023-06-10T05:02:04;10.70;;;5.10;;
79578;SDS011;69051;52.406;5.280;2023-06-10T05:04:31;16.58;;;5.65;;
79578;SDS011;69051;52.406;5.280;2023-06-10T05:06:57;14.80;;;5.97;;
79578;SDS011;69051;52.406;5.280;2023-06-10T05:09:24;15.85;;;5.18;;
79578;SDS011;69051;52.406;5.280;2023-06-10T05:11:50;12.65;;;5.82;;
79578;SDS011;69051;52.406;5.280;2023-06-10T05:14:17;14.05;;;6.07;;
79578;SDS011;69051;52.406;5.280;2023-06-10T05:16:45;12.93;;;5.65;;
79578;SDS011;69051;52.406;5.280;2023-06-10T05:19:11;18.52;;;6.57;;
79578;SDS011;69051;52.406;5.280;2023-06-10T05:21:38;20.73;;;6.03;;
79578;SDS011;69051;52.406;5.280;2023-06-10T05:24:05;17.58;;;5.70;;
79578;SDS011;69051;52.406;5.280;2023-06-10T05:26:32;15.60;;;6.43;;
79578;SDS011;69051;52.406;5.280;2023-06-10T05:28:59;14.52;;;5.88;;
79578;SDS011;69051;52.406;5.280;2023-06-10T05:31:25;12.13;;;6.35;;
79578;SDS011;69051;52.406;5.280;2023-06-10T05:33:52;18.15;;;6.50;;
79578;SDS011;69051;52.406;5.280;2023-06-10T05:36:19;11.60;;;5.40;;
79578;SDS011;69051;52.406;5.280;2023-06-10T05:38:46;13.13;;;6.45;;
79578;SDS011;69051;52.406;5.280;2023-06-10T05:41:12;12.82;;;5.65;;
79578;SDS011;69051;52.406;5.280;2023-06-10T05:43:39;12.82;;;6.65;;
79578;SDS011;69051;52.406;5.280;2023-06-10T05:46:06;18.25;;;7.68;;
79578;SDS011;69051;52.406;5.280;2023-06-10T05:48:32;14.48;;;6.15;;
79578;SDS011;69051;52.406;5.280;2023-06-10T05:50:59;15.13;;;5.70;;
79578;SDS011;69051;52.406;5.280;2023-06-10T05:53:25;15.82;;;6.20;;
79578;SDS011;69051;52.406;5.280;2023-06-10T05:55:52;12.02;;;5.70;;
79578;SDS011;69051;52.406;5.280;2023-06-10T05:58:19;14.07;;;6.60;;
79578;SDS011;69051;52.406;5.280;2023-06-10T06:00:46;13.27;;;5.95;;
79578;SDS011;69051;52.406;5.280;2023-06-10T06:03:12;11.65;;;5.60;;
79578;SDS011;69051;52.406;5.280;2023-06-10T06:05:39;16.40;;;6.47;;
79578;SDS011;69051;52.406;5.280;2023-06-10T06:08:06;14.35;;;7.38;;
79578;SDS011;69051;52.406;5.280;2023-06-10T06:10:33;12.65;;;5.90;;
79578;SDS011;69051;52.406;5.280;2023-06-10T06:13:00;14.50;;;5.45;;
79578;SDS011;69051;52.406;5.280;2023-06-10T06:15:27;15.85;;;5.90;;
79578;SDS011;69051;52.406;5.280;2023-06-10T06:17:53;14.52;;;6.65;;
79578;SDS011;69051;52.406;5.280;2023-06-10T06:20:20;15.77;;;6.00;;
79578;SDS011;69051;52.406;5.280;2023-06-10T06:22:46;15.70;;;6.22;;
79578;SDS011;69051;52.406;5.280;2023-06-10T06:25:13;14.38;;;5.82;;
79578;SDS011;69051;52.406;5.280;2023-06-10T06:27:40;14.90;;;6.15;;
79578;SDS011;69051;52.406;5.280;2023-06-10T06:30:07;15.18;;;6.47;;
79578;SDS011;69051;52.406;5.280;2023-06-10T06:32:34;16.17;;;6.82;;
79578;SDS011;69051;52.406;5.280;2023-06-10T06:35:00;13.50;;;6.43;;
79578;SDS011;69051;52.406;5.280;2023-06-10T06:37:27;13.80;;;5.88;;
79578;SDS011;69051;52.406;5.280;2023-06-10T06:39:53;16.83;;;6.15;;
79578;SDS011;69051;52.406;5.280;2023-06-10T06:42:20;14.75;;;6.35;;
79578;SDS011;69051;52.406;5.280;2023-06-10T06:44:47;12.13;;;5.75;;
79578;SDS011;69051;52.406;5.280;2023-06-10T06:47:13;14.15;;;5.53;;
79578;SDS011;69051;52.406;5.280;2023-06-10T06:49:40;13.32;;;5.90;;
79578;SDS011;69051;52.406;5.280;2023-06-10T06:52:06;12.10;;;4.68;;
79578;SDS011;69051;52.406;5.280;2023-06-10T06:54:33;16.52;;;6.93;;
79578;SDS011;69051;52.406;5.280;2023-06-10T06:57:00;15.77;;;6.30;;
79578;SDS011;69051;52.406;5.280;2023-06-10T06:59:26;15.02;;;5.93;;
79578;SDS011;69051;52.406;5.280;2023-06-10T07:01:52;12.02;;;5.95;;
79578;SDS011;69051;52.406;5.280;2023-06-10T07:04:20;17.23;;;6.75;;
79578;SDS011;69051;52.406;5.280;2023-06-10T07:06:49;11.38;;;5.47;;
79578;SDS011;69051;52.406;5.280;2023-06-10T07:09:16;14.77;;;6.60;;
79578;SDS011;69051;52.406;5.280;2023-06-10T07:11:42;16.50;;;5.95;;
79578;SDS011;69051;52.406;5.280;2023-06-10T07:14:09;14.75;;;6.70;;
79578;SDS011;69051;52.406;5.280;2023-06-10T07:16:36;13.07;;;6.10;;
79578;SDS011;69051;52.406;5.280;2023-06-10T07:19:02;15.57;;;6.07;;
79578;SDS011;69051;52.406;5.280;2023-06-10T07:21:31;14.45;;;5.65;;
79578;SDS011;69051;52.406;5.280;2023-06-10T07:23:59;13.57;;;6.45;;
79578;SDS011;69051;52.406;5.280;2023-06-10T07:26:26;15.10;;;6.35;;
79578;SDS011;69051;52.406;5.280;2023-06-10T07:28:52;14.73;;;6.10;;
79578;SDS011;69051;52.406;5.280;2023-06-10T07:31:19;11.60;;;5.20;;
79578;SDS011;69051;52.406;5.280;2023-06-10T07:33:46;18.05;;;5.68;;
79578;SDS011;69051;52.406;5.280;2023-06-10T07:36:13;15.15;;;5.93;;
79578;SDS011;69051;52.406;5.280;2023-06-10T07:38:39;21.35;;;6.00;;
79578;SDS011;69051;52.406;5.280;2023-06-10T07:41:08;15.13;;;5.97;;
79578;SDS011;69051;52.406;5.280;2023-06-10T07:43:35;11.75;;;5.85;;
79578;SDS011;69051;52.406;5.280;2023-06-10T07:46:01;13.80;;;5.15;;
79578;SDS011;69051;52.406;5.280;2023-06-10T07:48:28;13.60;;;5.60;;
79578;SDS011;69051;52.406;5.280;2023-06-10T07:50:54;12.23;;;5.10;;
79578;SDS011;69051;52.406;5.280;2023-06-10T07:53:21;13.63;;;5.28;;
79578;SDS011;69051;52.406;5.280;2023-06-10T07:55:48;14.23;;;5.07;;
79578;SDS011;69051;52.406;5.280;2023-06-10T07:58:14;12.00;;;5.75;;
79578;SDS011;69051;52.406;5.280;2023-06-10T08:00:40;12.18;;;5.30;;
79578;SDS011;69051;52.406;5.280;2023-06-10T08:03:07;12.05;;;5.03;;
79578;SDS011;69051;52.406;5.280;2023-06-10T08:05:34;11.10;;;5.15;;
79578;SDS011;69051;52.406;5.280;2023-06-10T08:08:00;15.93;;;5.72;;
79578;SDS011;69051;52.406;5.280;2023-06-10T08:10:29;14.95;;;5.35;;
79578;SDS011;69051;52.406;5.280;2023-06-10T08:12:55;13.70;;;5.40;;
79578;SDS011;69051;52.406;5.280;2023-06-10T08:15:22;15.50;;;5.47;;
79578;SDS011;69051;52.406;5.280;2023-06-10T08:17:49;11.52;;;5.35;;
79578;SDS011;69051;52.406;5.280;2023-06-10T08:20:15;10.57;;;5.35;;
79578;SDS011;69051;52.406;5.280;2023-06-10T08:22:42;14.52;;;5.82;;
79578;SDS011;69051;52.406;5.280;2023-06-10T08:25:08;12.15;;;5.32;;
79578;SDS011;69051;52.406;5.280;2023-06-10T08:27:36;10.68;;;4.70;;
79578;SDS011;69051;52.406;5.280;2023-06-10T08:30:02;11.88;;;4.55;;
79578;SDS011;69051;52.406;5.280;2023-06-10T08:32:29;14.75;;;5.32;;
79578;SDS011;69051;52.406;5.280;2023-06-10T08:34:56;20.92;;;5.00;;
79578;SDS011;69051;52.406;5.280;2023-06-10T08:37:22;13.98;;;6.03;;
79578;SDS011;69051;52.406;5.280;2023-06-10T08:39:49;11.88;;;4.85;;
79578;SDS011;69051;52.406;5.280;2023-06-10T08:44:54;16.13;;;5.28;;
79578;SDS011;69051;52.406;5.280;2023-06-10T08:47:23;9.57;;;4.18;;
79578;SDS011;69051;52.406;5.280;2023-06-10T08:49:50;13.82;;;4.85;;
79578;SDS011;69051;52.406;5.280;2023-06-10T08:52:19;13.02;;;4.40;;
79578;SDS011;69051;52.406;5.280;2023-06-10T08:54:54;13.25;;;4.72;;
79578;SDS011;69051;52.406;5.280;2023-06-10T08:57:23;10.40;;;4.15;;
79578;SDS011;69051;52.406;5.280;2023-06-10T08:59:51;16.25;;;5.82;;
79578;SDS011;69051;52.406;5.280;2023-06-10T09:02:19;12.48;;;5.07;;
79578;SDS011;69051;52.406;5.280;2023-06-10T09:04:47;14.13;;;5.40;;
79578;SDS011;69051;52.406;5.280;2023-06-10T09:07:16;12.38;;;4.70;;
79578;SDS011;69051;52.406;5.280;2023-06-10T09:09:43;11.75;;;4.32;;
79578;SDS011;69051;52.406;5.280;2023-06-10T09:12:11;11.98;;;5.65;;
79578;SDS011;69051;52.406;5.280;2023-06-10T09:14:39;12.52;;;4.65;;
79578;SDS011;69051;52.406;5.280;2023-06-10T09:17:06;12.52;;;5.32;;
79578;SDS011;69051;52.406;5.280;2023-06-10T09:19:32;13.95;;;5.72;;
79578;SDS011;69051;52.406;5.280;2023-06-10T09:21:59;11.35;;;4.28;;
79578;SDS011;69051;52.406;5.280;2023-06-10T09:24:25;11.60;;;4.43;;
79578;SDS011;69051;52.406;5.280;2023-06-10T09:27:08;16.55;;;5.82;;
79578;SDS011;69051;52.406;5.280;2023-06-10T09:29:48;11.75;;;4.57;;
79578;SDS011;69051;52.406;5.280;2023-06-10T09:32:18;11.27;;;4.78;;
79578;SDS011;69051;52.406;5.280;2023-06-10T09:34:45;8.90;;;4.15;;
79578;SDS011;69051;52.406;5.280;2023-06-10T09:37:12;10.25;;;4.05;;
79578;SDS011;69051;52.406;5.280;2023-06-10T09:39:40;11.00;;;4.70;;
79578;SDS011;69051;52.406;5.280;2023-06-10T09:42:16;13.07;;;4.32;;
79578;SDS011;69051;52.406;5.280;2023-06-10T09:44:51;10.40;;;4.13;;
79578;SDS011;69051;52.406;5.280;2023-06-10T09:47:21;11.82;;;4.25;;
79578;SDS011;69051;52.406;5.280;2023-06-10T09:49:49;12.93;;;4.95;;
79578;SDS011;69051;52.406;5.280;2023-06-10T09:52:27;12.52;;;4.20;;
79578;SDS011;69051;52.406;5.280;2023-06-10T09:54:58;11.23;;;4.72;;
79578;SDS011;69051;52.406;5.280;2023-06-10T09:57:26;10.48;;;3.58;;
79578;SDS011;69051;52.406;5.280;2023-06-10T09:59:57;8.80;;;4.03;;
79578;SDS011;69051;52.406;5.280;2023-06-10T10:02:23;8.77;;;4.05;;
79578;SDS011;69051;52.406;5.280;2023-06-10T10:04:49;9.65;;;3.78;;
79578;SDS011;69051;52.406;5.280;2023-06-10T10:07:16;11.07;;;4.20;;
79578;SDS011;69051;52.406;5.280;2023-06-10T10:09:43;8.00;;;3.83;;
79578;SDS011;69051;52.406;5.280;2023-06-10T10:12:10;11.48;;;4.18;;
79578;SDS011;69051;52.406;5.280;2023-06-10T10:14:38;10.80;;;4.30;;
79578;SDS011;69051;52.406;5.280;2023-06-10T10:17:07;11.00;;;3.83;;
79578;SDS011;69051;52.406;5.280;2023-06-10T10:19:38;10.70;;;3.97;;
79578;SDS011;69051;52.406;5.280;2023-06-10T10:22:14;9.18;;;3.70;;
79578;SDS011;69051;52.406;5.280;2023-06-10T10:24:50;10.20;;;4.10;;
79578;SDS011;69051;52.406;5.280;2023-06-10T10:27:44;8.73;;;4.30;;
79578;SDS011;69051;52.406;5.280;2023-06-10T10:30:10;12.23;;;4.18;;
79578;SDS011;69051;52.406;5.280;2023-06-10T10:32:39;11.38;;;3.90;;
79578;SDS011;69051;52.406;5.280;2023-06-10T10:35:21;11.88;;;4.72;;
79578;SDS011;69051;52.406;5.280;2023-06-10T10:37:50;12.13;;;4.75;;
79578;SDS011;69051;52.406;5.280;2023-06-10T10:40:19;10.23;;;4.20;;
79578;SDS011;69051;52.406;5.280;2023-06-10T10:42:49;10.43;;;4.63;;
79578;SDS011;69051;52.406;5.280;2023-06-10T10:45:16;11.90;;;4.47;;
79578;SDS011;69051;52.406;5.280;2023-06-10T10:47:45;11.50;;;4.25;;
79578;SDS011;69051;52.406;5.280;2023-06-10T10:50:13;11.32;;;4.00;;
79578;SDS011;69051;52.406;5.280;2023-06-10T10:52:55;12.60;;;4.30;;
79578;SDS011;69051;52.406;5.280;2023-06-10T10:55:23;11.70;;;3.97;;
79578;SDS011;69051;52.406;5.280;2023-06-10T10:58:03;13.65;;;4.05;;
79578;SDS011;69051;52.406;5.280;2023-06-10T11:00:34;10.70;;;4.07;;
79578;SDS011;69051;52.406;5.280;2023-06-10T11:05:40;10.70;;;3.92;;
79578;SDS011;69051;52.406;5.280;2023-06-10T11:08:11;10.45;;;4.43;;
79578;SDS011;69051;52.406;5.280;2023-06-10T11:10:38;9.35;;;4.15;;
79578;SDS011;69051;52.406;5.280;2023-06-10T11:13:12;11.43;;;4.00;;
79578;SDS011;69051;52.406;5.280;2023-06-10T11:15:43;15.48;;;4.63;;
79578;SDS011;69051;52.406;5.280;2023-06-10T11:18:13;9.45;;;3.50;;
79578;SDS011;69051;52.406;5.280;2023-06-10T11:21:02;8.23;;;3.58;;
79578;SDS011;69051;52.406;5.280;2023-06-10T11:28:36;9.40;;;4.18;;
79578;SDS011;69051;52.406;5.280;2023-06-10T11:31:03;8.25;;;3.90;;
79578;SDS011;69051;52.406;5.280;2023-06-10T11:33:29;8.02;;;4.10;;
79578;SDS011;69051;52.406;5.280;2023-06-10T11:35:57;12.45;;;3.88;;
79578;SDS011;69051;52.406;5.280;2023-06-10T11:38:24;12.70;;;4.85;;
79578;SDS011;69051;52.406;5.280;2023-06-10T11:40:51;8.10;;;3.55;;
79578;SDS011;69051;52.406;5.280;2023-06-10T11:43:18;7.53;;;3.85;;
79578;SDS011;69051;52.406;5.280;2023-06-10T11:45:44;9.20;;;3.85;;
79578;SDS011;69051;52.406;5.280;2023-06-10T11:48:14;10.10;;;4.10;;
79578;SDS011;69051;52.406;5.280;2023-06-10T11:50:41;8.75;;;4.13;;
79578;SDS011;69051;52.406;5.280;2023-06-10T11:53:08;8.25;;;4.03;;
79578;SDS011;69051;52.406;5.280;2023-06-10T11:55:47;13.65;;;4.00;;
79578;SDS011;69051;52.406;5.280;2023-06-10T11:58:15;13.27;;;4.72;;
79578;SDS011;69051;52.406;5.280;2023-06-10T12:00:52;12.00;;;3.80;;
79578;SDS011;69051;52.406;5.280;2023-06-10T12:03:20;11.05;;;4.00;;
79578;SDS011;69051;52.406;5.280;2023-06-10T12:06:01;9.27;;;3.63;;
79578;SDS011;69051;52.406;5.280;2023-06-10T12:08:29;9.32;;;4.13;;
79578;SDS011;69051;52.406;5.280;2023-06-10T12:10:56;11.48;;;3.67;;
79578;SDS011;69051;52.406;5.280;2023-06-10T12:13:25;9.07;;;4.30;;
79578;SDS011;69051;52.406;5.280;2023-06-10T12:15:53;10.43;;;3.85;;
79578;SDS011;69051;52.406;5.280;2023-06-10T12:18:20;9.68;;;4.40;;
79578;SDS011;69051;52.406;5.280;2023-06-10T12:20:47;9.50;;;4.10;;
79578;SDS011;69051;52.406;5.280;2023-06-10T12:23:15;7.80;;;3.92;;
79578;SDS011;69051;52.406;5.280;2023-06-10T12:25:55;12.77;;;4.18;;
79578;SDS011;69051;52.406;5.280;2023-06-10T12:28:22;11.90;;;4.32;;
79578;SDS011;69051;52.406;5.280;2023-06-10T12:30:49;10.77;;;4.00;;
79578;SDS011;69051;52.406;5.280;2023-06-10T12:33:17;8.82;;;3.83;;
79578;SDS011;69051;52.406;5.280;2023-06-10T12:35:51;9.50;;;3.63;;
79578;SDS011;69051;52.406;5.280;2023-06-10T12:38:21;8.68;;;3.92;;
79578;SDS011;69051;52.406;5.280;2023-06-10T12:40:48;10.07;;;4.50;;
79578;SDS011;69051;52.406;5.280;2023-06-10T12:43:22;10.10;;;4.13;;
79578;SDS011;69051;52.406;5.280;2023-06-10T12:45:49;9.40;;;3.97;;
79578;SDS011;69051;52.406;5.280;2023-06-10T12:48:19;12.27;;;3.97;;
79578;SDS011;69051;52.406;5.280;2023-06-10T12:50:56;10.45;;;4.03;;
79578;SDS011;69051;52.406;5.280;2023-06-10T12:53:24;8.32;;;4.07;;
79578;SDS011;69051;52.406;5.280;2023-06-10T12:55:52;8.35;;;3.83;;
79578;SDS011;69051;52.406;5.280;2023-06-10T12:58:20;10.77;;;3.85;;
79578;SDS011;69051;52.406;5.280;2023-06-10T13:00:47;9.45;;;3.88;;
79578;SDS011;69051;52.406;5.280;2023-06-10T13:03:15;14.68;;;4.40;;
79578;SDS011;69051;52.406;5.280;2023-06-10T13:05:41;8.95;;;3.47;;
79578;SDS011;69051;52.406;5.280;2023-06-10T13:08:08;8.00;;;3.78;;
79578;SDS011;69051;52.406;5.280;2023-06-10T13:10:36;9.98;;;4.28;;
79578;SDS011;69051;52.406;5.280;2023-06-10T13:13:03;8.45;;;3.90;;
79578;SDS011;69051;52.406;5.280;2023-06-10T13:15:35;8.98;;;4.10;;
79578;SDS011;69051;52.406;5.280;2023-06-10T13:18:08;10.15;;;3.80;;
79578;SDS011;69051;52.406;5.280;2023-06-10T13:20:35;11.27;;;4.07;;
79578;SDS011;69051;52.406;5.280;2023-06-10T13:23:02;7.63;;;3.85;;
79578;SDS011;69051;52.406;5.280;2023-06-10T13:25:28;7.93;;;3.65;;
79578;SDS011;69051;52.406;5.280;2023-06-10T13:27:55;7.22;;;3.70;;
79578;SDS011;69051;52.406;5.280;2023-06-10T13:30:21;7.53;;;3.75;;
79578;SDS011;69051;52.406;5.280;2023-06-10T13:32:48;7.95;;;3.80;;
79578;SDS011;69051;52.406;5.280;2023-06-10T13:35:14;18.27;;;4.28;;
79578;SDS011;69051;52.406;5.280;2023-06-10T13:37:41;10.13;;;4.10;;
79578;SDS011;69051;52.406;5.280;2023-06-10T13:40:08;9.57;;;3.70;;
79578;SDS011;69051;52.406;5.280;2023-06-10T13:42:35;7.07;;;4.05;;
79578;SDS011;69051;52.406;5.280;2023-06-10T13:45:03;9.10;;;4.18;;
79578;SDS011;69051;52.406;5.280;2023-06-10T13:47:30;9.63;;;3.97;;
79578;SDS011;69051;52.406;5.280;2023-06-10T13:49:57;11.05;;;3.80;;
79578;SDS011;69051;52.406;5.280;2023-06-10T13:52:23;8.05;;;3.90;;
79578;SDS011;69051;52.406;5.280;2023-06-10T13:54:50;10.68;;;4.03;;
79578;SDS011;69051;52.406;5.280;2023-06-10T13:57:16;6.97;;;3.30;;
79578;SDS011;69051;52.406;5.280;2023-06-10T13:59:43;8.80;;;4.13;;
79578;SDS011;69051;52.406;5.280;2023-06-10T14:02:10;10.50;;;3.60;;
79578;SDS011;69051;52.406;5.280;2023-06-10T14:04:36;9.50;;;3.90;;
79578;SDS011;69051;52.406;5.280;2023-06-10T14:07:03;7.22;;;3.88;;
79578;SDS011;69051;52.406;5.280;2023-06-10T14:09:30;10.30;;;4.15;;
79578;SDS011;69051;52.406;5.280;2023-06-10T14:11:56;7.88;;;3.60;;
79578;SDS011;69051;52.406;5.280;2023-06-10T14:14:23;10.00;;;3.35;;
79578;SDS011;69051;52.406;5.280;2023-06-10T14:16:49;8.10;;;3.78;;
79578;SDS011;69051;52.406;5.280;2023-06-10T14:19:16;9.32;;;3.20;;
79578;SDS011;69051;52.406;5.280;2023-06-10T14:21:42;8.43;;;3.38;;
79578;SDS011;69051;52.406;5.280;2023-06-10T14:24:09;6.97;;;3.10;;
79578;SDS011;69051;52.406;5.280;2023-06-10T14:26:35;8.70;;;3.35;;
79578;SDS011;69051;52.406;5.280;2023-06-10T14:29:02;8.48;;;3.50;;
79578;SDS011;69051;52.406;5.280;2023-06-10T14:31:29;7.35;;;3.50;;
79578;SDS011;69051;52.406;5.280;2023-06-10T14:33:55;6.20;;;3.33;;
79578;SDS011;69051;52.406;5.280;2023-06-10T14:36:22;13.50;;;3.53;;
79578;SDS011;69051;52.406;5.280;2023-06-10T14:38:48;8.75;;;3.47;;
79578;SDS011;69051;52.406;5.280;2023-06-10T14:41:15;8.93;;;3.45;;
79578;SDS011;69051;52.406;5.280;2023-06-10T14:43:41;12.90;;;3.00;;
79578;SDS011;69051;52.406;5.280;2023-06-10T14:46:08;9.63;;;3.17;;
79578;SDS011;69051;52.406;5.280;2023-06-10T14:48:34;11.40;;;3.10;;
79578;SDS011;69051;52.406;5.280;2023-06-10T14:51:01;10.82;;;3.70;;
79578;SDS011;69051;52.406;5.280;2023-06-10T14:53:28;8.68;;;3.53;;
79578;SDS011;69051;52.406;5.280;2023-06-10T14:55:54;7.28;;;3.63;;
79578;SDS011;69051;52.406;5.280;2023-06-10T14:58:21;5.90;;;3.10;;
79578;SDS011;69051;52.406;5.280;2023-06-10T15:00:47;10.90;;;3.25;;
79578;SDS011;69051;52.406;5.280;2023-06-10T15:03:14;8.38;;;3.78;;
79578;SDS011;69051;52.406;5.280;2023-06-10T15:05:40;7.10;;;3.30;;
79578;SDS011;69051;52.406;5.280;2023-06-10T15:08:07;7.90;;;3.20;;